MUNG/GER METAR and TAF weather

Enter ICAO airport designator
Station Type Date Time Source
MUNG METAR 2018/09/24 22:50 UTC NOAA

MUNG 242250Z 09004KT 9000 FEW020 28/21 Q1014


Station Type Date Time Source
MUNG Decoded METAR 2018/09/24 22:50 UTC NOAA

Nueva Gerona, Isla De Pinos, Cuba (MUNG) 21-50N 082-47W 23M
Sep 24, 2018 - 06:50 PM EDT / 2018.09.24 2250 UTC
Wind: from the E (090 degrees) at 5 MPH (4 KT):0
Visibility: 5 mile(s):0
Sky conditions: mostly clear
Temperature: 82 F (28 C)
Dew Point: 69 F (21 C)
Relative Humidity: 65%
Pressure (altimeter): 29.94 in. Hg (1014 hPa)
ob: MUNG 242250Z 09004KT 9000 FEW020 28/21 Q1014
cycle: 23

Station Type Date Time Source
MUNG TAF 2018/12/10 12:48 UTC NOAA

MUNG 101100Z 1012/1024 VRB03KT 9000 SCT020
BECMG 1015/1017 35008KT


Example: see airport list